MST,Max TemperatureF,Mean TemperatureF,Min TemperatureF,Max Dew PointF,MeanDew PointF,Min DewpointF,Max Humidity, Mean Humidity, Min Humidity, Max Sea Level PressureIn, Mean Sea Level PressureIn, Min Sea Level PressureIn, Max VisibilityMiles, Mean VisibilityMiles, Min VisibilityMiles, Max Wind SpeedMPH, Mean Wind SpeedMPH, Max Gust SpeedMPH,PrecipitationIn, CloudCover, Events, WindDirDegrees
2013-7-1,107,93,79,62,54,45,54,34,14,29.98,29.80,29.68,10,10,10,35,8,46,T,1,Rain-Thunderstorm,102
2013-7-2,102,87,71,65,55,49,54,36,17,30.15,29.90,29.74,10,10,5,37,12,51,0.03,3,Rain-Thunderstorm,98
2013-7-3,106,93,80,54,49,42,39,27,14,29.83,29.73,29.60,10,10,10,22,10,26,0.00,0,,157
2013-7-4,106,95,83,57,51,45,43,28,13,29.78,29.69,29.60,10,10,10,22,9,29,0.00,0,,242
2013-7-5,100,86,72,70,63,54,84,54,24,29.95,29.80,29.69,10,8,0,47,8,73,0.89,3,Rain-Thunderstorm,160
2013-7-6,103,89,74,67,61,49,74,45,16,29.88,29.70,29.59,10,10,10,17,5,24,0.00,0,,175
2013-7-7,108,94,79,68,59,50,58,37,16,29.82,29.71,29.62,10,10,10,29,6,41,0.02,1,Rain-Thunderstorm,129
2013-7-8,105,95,84,63,57,50,44,31,18,29.97,29.80,29.71,10,10,10,29,7,38,T,1,Rain-Thunderstorm,130
2013-7-9,100,89,77,67,63,58,58,42,26,30.01,29.88,29.78,10,10,10,33,12,39,T,1,Rain-Thunderstorm,283
2013-7-10,98,87,75,71,66,62,74,54,34,30.08,29.91,29.81,10,10,10,29,6,35,0.02,2,Rain-Thunderstorm,218
2013-7-11,92,83,74,71,66,63,84,63,41,30.05,29.87,29.80,10,10,10,18,8,22,0.10,1,Rain-Thunderstorm,214
2013-7-12,94,87,80,68,62,55,67,48,28,30.03,29.84,29.75,10,10,10,21,7,26,T,1,Thunderstorm,295
2013-7-13,100,89,78,66,61,55,67,46,25,30.02,29.82,29.74,10,10,10,20,7,24,T,1,Rain,251
2013-7-14,102,92,82,64,59,54,55,39,22,29.85,29.78,29.70,10,10,10,21,8,29,0.00,0,,241
2013-7-15,104,91,78,68,61,53,58,40,21,29.94,29.78,29.63,10,9,2,25,8,32,0.56,3,Rain-Thunderstorm,206
2013-7-16,92,84,75,69,65,63,79,59,38,30.05,29.88,29.78,10,9,2,24,12,30,0.14,3,Rain-Thunderstorm,120
2013-7-17,98,87,75,68,58,51,79,50,21,29.96,29.89,29.80,10,10,10,22,10,26,0.00,2,,116
2013-7-18,98,89,80,58,55,50,45,33,21,29.92,29.84,29.74,10,10,10,25,12,29,T,0,,108
2013-7-19,92,86,80,65,59,58,51,42,32,29.93,29.81,29.73,10,10,10,15,6,20,T,2,Rain,136
2013-7-20,94,83,71,71,67,63,82,59,36,29.92,29.81,29.70,10,9,0,43,5,54,0.81,4,Fog-Rain-Thunderstorm,282
2013-7-21,92,84,75,70,66,60,87,63,38,29.88,29.83,29.78,10,10,10,18,8,24,T,3,,212
2013-7-22,95,85,74,68,64,60,79,56,33,30.07,29.89,29.82,10,10,10,22,7,27,0.00,0,,266
2013-7-23,73,85,75,64,60,57,69,49,28,30.08,29.88,29.76,10,10,10,14,6,,0.00,0,,282
2013-7-24,93,59,26,71,62,18,69,53,36,30.03,29.88,29.78,10,10,10,20,5,24,T,2,Rain-Thunderstorm,186
2013-7-25,93,85,76,70,66,63,74,59,44,30.06,29.93,29.85,10,10,10,15,4,20,0.01,1,Rain-Thunderstorm,154
2013-7-26,97,86,75,70,66,61,82,56,30,30.11,29.99,29.94,10,10,10,24,6,29,T,2,Rain-Thunderstorm,142
2013-7-27,97,87,77,67,64,61,69,50,30,29.99,29.89,29.79,10,10,10,24,6,35,0.02,1,Rain-Thunderstorm,140
2013-7-28,101,88,75,70,55,46,74,45,16,29.82,29.77,29.69,10,10,10,16,6,22,0.00,0,,183
2013-7-29,100,89,77,52,47,44,35,26,16,29.92,29.86,29.80,10,10,10,14,6,17,0.00,0,,207
2013-7-30,104,91,77,57,52,47,50,32,14,30.02,29.94,29.87,10,10,10,17,5,24,0.00,0,,277
2013-7-31,101,91,81,58,54,48,40,29,18,29.97,29.90,29.84,10,10,10,16,5,20,0.00,2,,189